sensor_id;sensor_type;location;lat;lon;timestamp;P1;durP1;ratioP1;P2;durP2;ratioP2
10617;SDS011;5356;43.526;26.534;2023-04-24T00:00:34;11.45;;;6.63;;
10617;SDS011;5356;43.526;26.534;2023-04-24T00:02:59;8.70;;;5.90;;
10617;SDS011;5356;43.526;26.534;2023-04-24T00:05:25;7.43;;;4.85;;
10617;SDS011;5356;43.526;26.534;2023-04-24T00:07:50;10.88;;;5.22;;
10617;SDS011;5356;43.526;26.534;2023-04-24T00:10:19;9.93;;;4.80;;
10617;SDS011;5356;43.526;26.534;2023-04-24T00:12:44;9.30;;;5.32;;
10617;SDS011;5356;43.526;26.534;2023-04-24T00:15:10;6.93;;;4.00;;
10617;SDS011;5356;43.526;26.534;2023-04-24T00:17:36;5.32;;;3.65;;
10617;SDS011;5356;43.526;26.534;2023-04-24T00:20:02;5.72;;;3.35;;
10617;SDS011;5356;43.526;26.534;2023-04-24T00:22:29;5.97;;;3.88;;
10617;SDS011;5356;43.526;26.534;2023-04-24T00:24:56;5.75;;;4.00;;
10617;SDS011;5356;43.526;26.534;2023-04-24T00:27:21;6.47;;;3.70;;
10617;SDS011;5356;43.526;26.534;2023-04-24T00:29:47;7.50;;;4.22;;
10617;SDS011;5356;43.526;26.534;2023-04-24T00:32:13;5.25;;;3.67;;
10617;SDS011;5356;43.526;26.534;2023-04-24T00:34:39;9.57;;;4.22;;
10617;SDS011;5356;43.526;26.534;2023-04-24T00:37:04;8.73;;;4.45;;
10617;SDS011;5356;43.526;26.534;2023-04-24T00:39:31;7.72;;;4.60;;
10617;SDS011;5356;43.526;26.534;2023-04-24T00:41:56;9.10;;;4.85;;
10617;SDS011;5356;43.526;26.534;2023-04-24T00:44:22;6.70;;;4.38;;
10617;SDS011;5356;43.526;26.534;2023-04-24T00:46:48;9.43;;;4.75;;
10617;SDS011;5356;43.526;26.534;2023-04-24T00:49:20;13.48;;;7.95;;
10617;SDS011;5356;43.526;26.534;2023-04-24T00:51:46;10.95;;;5.45;;
10617;SDS011;5356;43.526;26.534;2023-04-24T00:54:14;7.63;;;4.90;;
10617;SDS011;5356;43.526;26.534;2023-04-24T00:56:40;5.55;;;4.75;;
10617;SDS011;5356;43.526;26.534;2023-04-24T00:59:07;8.55;;;5.72;;
10617;SDS011;5356;43.526;26.534;2023-04-24T01:01:33;7.00;;;4.82;;
10617;SDS011;5356;43.526;26.534;2023-04-24T01:03:59;7.00;;;4.22;;
10617;SDS011;5356;43.526;26.534;2023-04-24T01:06:27;8.38;;;4.63;;
10617;SDS011;5356;43.526;26.534;2023-04-24T01:08:53;5.63;;;4.20;;
10617;SDS011;5356;43.526;26.534;2023-04-24T01:11:20;4.18;;;3.78;;
10617;SDS011;5356;43.526;26.534;2023-04-24T01:13:47;6.90;;;4.57;;
10617;SDS011;5356;43.526;26.534;2023-04-24T01:16:13;7.78;;;4.80;;
10617;SDS011;5356;43.526;26.534;2023-04-24T01:18:42;8.65;;;4.93;;
10617;SDS011;5356;43.526;26.534;2023-04-24T01:21:08;8.05;;;5.88;;
10617;SDS011;5356;43.526;26.534;2023-04-24T01:23:36;11.55;;;5.07;;
10617;SDS011;5356;43.526;26.534;2023-04-24T01:26:02;13.07;;;5.18;;
10617;SDS011;5356;43.526;26.534;2023-04-24T01:28:27;9.13;;;4.93;;
10617;SDS011;5356;43.526;26.534;2023-04-24T01:30:53;7.57;;;4.28;;
10617;SDS011;5356;43.526;26.534;2023-04-24T01:33:20;8.27;;;4.13;;
10617;SDS011;5356;43.526;26.534;2023-04-24T01:35:46;8.20;;;4.07;;
10617;SDS011;5356;43.526;26.534;2023-04-24T01:38:11;5.82;;;4.32;;
10617;SDS011;5356;43.526;26.534;2023-04-24T01:40:37;6.35;;;4.32;;
10617;SDS011;5356;43.526;26.534;2023-04-24T01:43:03;7.70;;;4.78;;
10617;SDS011;5356;43.526;26.534;2023-04-24T01:45:28;7.75;;;4.30;;
10617;SDS011;5356;43.526;26.534;2023-04-24T01:47:54;7.03;;;4.15;;
10617;SDS011;5356;43.526;26.534;2023-04-24T01:50:20;5.07;;;4.10;;
10617;SDS011;5356;43.526;26.534;2023-04-24T01:52:45;6.90;;;3.67;;
10617;SDS011;5356;43.526;26.534;2023-04-24T01:55:11;5.40;;;3.90;;
10617;SDS011;5356;43.526;26.534;2023-04-24T01:57:36;5.65;;;3.78;;
10617;SDS011;5356;43.526;26.534;2023-04-24T02:00:05;7.65;;;4.22;;
10617;SDS011;5356;43.526;26.534;2023-04-24T02:02:32;6.28;;;4.13;;
10617;SDS011;5356;43.526;26.534;2023-04-24T02:04:57;6.20;;;4.07;;
10617;SDS011;5356;43.526;26.534;2023-04-24T02:07:23;7.10;;;3.83;;
10617;SDS011;5356;43.526;26.534;2023-04-24T02:09:48;7.57;;;4.03;;
10617;SDS011;5356;43.526;26.534;2023-04-24T02:12:15;4.50;;;3.88;;
10617;SDS011;5356;43.526;26.534;2023-04-24T02:14:40;5.22;;;3.63;;
10617;SDS011;5356;43.526;26.534;2023-04-24T02:17:07;7.25;;;4.35;;
10617;SDS011;5356;43.526;26.534;2023-04-24T02:19:32;6.78;;;4.05;;
10617;SDS011;5356;43.526;26.534;2023-04-24T02:21:58;5.65;;;3.72;;
10617;SDS011;5356;43.526;26.534;2023-04-24T02:24:23;5.53;;;3.97;;
10617;SDS011;5356;43.526;26.534;2023-04-24T02:26:49;7.60;;;4.20;;
10617;SDS011;5356;43.526;26.534;2023-04-24T02:29:15;6.32;;;3.85;;
10617;SDS011;5356;43.526;26.534;2023-04-24T02:31:40;6.55;;;4.32;;
10617;SDS011;5356;43.526;26.534;2023-04-24T02:34:06;6.55;;;4.20;;
10617;SDS011;5356;43.526;26.534;2023-04-24T02:36:31;8.35;;;4.00;;
10617;SDS011;5356;43.526;26.534;2023-04-24T02:38:57;6.65;;;3.80;;
10617;SDS011;5356;43.526;26.534;2023-04-24T02:41:22;5.90;;;4.35;;
10617;SDS011;5356;43.526;26.534;2023-04-24T02:43:48;5.13;;;4.05;;
10617;SDS011;5356;43.526;26.534;2023-04-24T02:46:13;8.52;;;4.78;;
10617;SDS011;5356;43.526;26.534;2023-04-24T02:48:40;5.53;;;4.03;;
10617;SDS011;5356;43.526;26.534;2023-04-24T02:51:05;7.80;;;4.40;;
10617;SDS011;5356;43.526;26.534;2023-04-24T02:53:31;10.55;;;5.40;;
10617;SDS011;5356;43.526;26.534;2023-04-24T02:55:57;9.07;;;5.85;;
10617;SDS011;5356;43.526;26.534;2023-04-24T02:58:22;10.25;;;5.22;;
10617;SDS011;5356;43.526;26.534;2023-04-24T03:00:48;8.30;;;4.45;;
10617;SDS011;5356;43.526;26.534;2023-04-24T03:03:14;6.10;;;4.07;;
10617;SDS011;5356;43.526;26.534;2023-04-24T03:05:40;5.57;;;3.90;;
10617;SDS011;5356;43.526;26.534;2023-04-24T03:08:07;6.65;;;4.07;;
10617;SDS011;5356;43.526;26.534;2023-04-24T03:10:32;6.15;;;4.43;;
10617;SDS011;5356;43.526;26.534;2023-04-24T03:12:58;6.80;;;4.50;;
10617;SDS011;5356;43.526;26.534;2023-04-24T03:15:23;6.50;;;4.15;;
10617;SDS011;5356;43.526;26.534;2023-04-24T03:17:49;6.30;;;4.03;;
10617;SDS011;5356;43.526;26.534;2023-04-24T03:20:14;8.27;;;4.78;;
10617;SDS011;5356;43.526;26.534;2023-04-24T03:22:40;5.85;;;3.85;;
10617;SDS011;5356;43.526;26.534;2023-04-24T03:25:06;5.53;;;3.58;;
10617;SDS011;5356;43.526;26.534;2023-04-24T03:27:33;9.00;;;4.65;;
10617;SDS011;5356;43.526;26.534;2023-04-24T03:29:58;8.65;;;4.78;;
10617;SDS011;5356;43.526;26.534;2023-04-24T03:32:24;8.20;;;4.15;;
10617;SDS011;5356;43.526;26.534;2023-04-24T03:34:49;6.70;;;3.80;;
10617;SDS011;5356;43.526;26.534;2023-04-24T03:37:15;6.50;;;4.13;;
10617;SDS011;5356;43.526;26.534;2023-04-24T03:39:41;6.10;;;4.38;;
10617;SDS011;5356;43.526;26.534;2023-04-24T03:42:07;6.93;;;4.88;;
10617;SDS011;5356;43.526;26.534;2023-04-24T03:44:33;8.23;;;5.05;;
10617;SDS011;5356;43.526;26.534;2023-04-24T03:46:59;6.40;;;3.92;;
10617;SDS011;5356;43.526;26.534;2023-04-24T03:49:25;6.30;;;4.43;;
10617;SDS011;5356;43.526;26.534;2023-04-24T03:51:50;8.05;;;4.97;;
10617;SDS011;5356;43.526;26.534;2023-04-24T03:54:17;7.85;;;4.55;;
10617;SDS011;5356;43.526;26.534;2023-04-24T03:56:42;7.38;;;4.38;;
10617;SDS011;5356;43.526;26.534;2023-04-24T03:59:08;9.02;;;5.18;;
10617;SDS011;5356;43.526;26.534;2023-04-24T04:01:33;9.70;;;5.03;;
10617;SDS011;5356;43.526;26.534;2023-04-24T04:04:02;7.18;;;4.53;;
10617;SDS011;5356;43.526;26.534;2023-04-24T04:06:28;11.55;;;4.82;;
10617;SDS011;5356;43.526;26.534;2023-04-24T04:09:12;8.48;;;5.50;;
10617;SDS011;5356;43.526;26.534;2023-04-24T04:11:37;8.52;;;4.32;;
10617;SDS011;5356;43.526;26.534;2023-04-24T04:14:03;9.85;;;4.25;;
10617;SDS011;5356;43.526;26.534;2023-04-24T04:16:28;8.90;;;4.78;;
10617;SDS011;5356;43.526;26.534;2023-04-24T04:18:54;10.70;;;5.20;;
10617;SDS011;5356;43.526;26.534;2023-04-24T04:21:20;9.73;;;5.55;;
10617;SDS011;5356;43.526;26.534;2023-04-24T04:23:45;15.82;;;5.32;;
10617;SDS011;5356;43.526;26.534;2023-04-24T04:26:11;22.42;;;5.30;;
10617;SDS011;5356;43.526;26.534;2023-04-24T04:28:37;7.90;;;4.13;;
10617;SDS011;5356;43.526;26.534;2023-04-24T04:31:04;5.57;;;3.85;;
10617;SDS011;5356;43.526;26.534;2023-04-24T04:33:30;6.55;;;3.97;;
10617;SDS011;5356;43.526;26.534;2023-04-24T04:35:56;9.57;;;4.57;;
10617;SDS011;5356;43.526;26.534;2023-04-24T04:38:23;9.32;;;4.70;;
10617;SDS011;5356;43.526;26.534;2023-04-24T04:40:49;11.30;;;5.63;;
10617;SDS011;5356;43.526;26.534;2023-04-24T04:43:17;12.35;;;5.75;;
10617;SDS011;5356;43.526;26.534;2023-04-24T04:45:43;7.22;;;4.10;;
10617;SDS011;5356;43.526;26.534;2023-04-24T04:48:09;6.35;;;4.57;;
10617;SDS011;5356;43.526;26.534;2023-04-24T04:50:37;7.35;;;4.97;;
10617;SDS011;5356;43.526;26.534;2023-04-24T04:53:03;20.33;;;5.28;;
10617;SDS011;5356;43.526;26.534;2023-04-24T04:55:31;9.48;;;5.20;;
10617;SDS011;5356;43.526;26.534;2023-04-24T04:57:56;6.88;;;4.30;;
10617;SDS011;5356;43.526;26.534;2023-04-24T05:00:23;7.13;;;4.78;;
10617;SDS011;5356;43.526;26.534;2023-04-24T05:02:50;10.38;;;5.07;;
10617;SDS011;5356;43.526;26.534;2023-04-24T05:05:16;16.75;;;6.30;;
10617;SDS011;5356;43.526;26.534;2023-04-24T05:07:42;21.42;;;6.75;;
10617;SDS011;5356;43.526;26.534;2023-04-24T05:10:08;6.72;;;4.50;;
10617;SDS011;5356;43.526;26.534;2023-04-24T05:12:34;12.27;;;4.63;;
10617;SDS011;5356;43.526;26.534;2023-04-24T05:15:00;6.15;;;4.45;;
10617;SDS011;5356;43.526;26.534;2023-04-24T05:17:25;9.35;;;3.85;;
10617;SDS011;5356;43.526;26.534;2023-04-24T05:19:51;7.22;;;4.20;;
10617;SDS011;5356;43.526;26.534;2023-04-24T05:22:16;7.68;;;4.25;;
10617;SDS011;5356;43.526;26.534;2023-04-24T05:24:43;7.75;;;4.22;;
10617;SDS011;5356;43.526;26.534;2023-04-24T05:27:09;7.05;;;4.20;;
10617;SDS011;5356;43.526;26.534;2023-04-24T05:29:34;10.52;;;3.90;;
10617;SDS011;5356;43.526;26.534;2023-04-24T05:32:00;8.13;;;3.97;;
10617;SDS011;5356;43.526;26.534;2023-04-24T05:34:26;5.80;;;4.05;;
10617;SDS011;5356;43.526;26.534;2023-04-24T05:36:51;5.25;;;2.88;;
10617;SDS011;5356;43.526;26.534;2023-04-24T05:39:17;10.38;;;3.88;;
10617;SDS011;5356;43.526;26.534;2023-04-24T05:41:43;10.70;;;3.90;;
10617;SDS011;5356;43.526;26.534;2023-04-24T05:44:08;6.55;;;3.65;;
10617;SDS011;5356;43.526;26.534;2023-04-24T05:46:34;9.35;;;4.18;;
10617;SDS011;5356;43.526;26.534;2023-04-24T05:49:00;5.40;;;3.95;;
10617;SDS011;5356;43.526;26.534;2023-04-24T05:51:25;19.90;;;5.10;;
10617;SDS011;5356;43.526;26.534;2023-04-24T05:53:51;5.72;;;3.60;;
10617;SDS011;5356;43.526;26.534;2023-04-24T05:56:17;7.03;;;3.90;;
10617;SDS011;5356;43.526;26.534;2023-04-24T05:58:42;8.32;;;4.15;;
10617;SDS011;5356;43.526;26.534;2023-04-24T06:01:08;8.77;;;3.85;;
10617;SDS011;5356;43.526;26.534;2023-04-24T06:03:34;8.02;;;3.45;;
10617;SDS011;5356;43.526;26.534;2023-04-24T06:06:02;6.50;;;3.80;;
10617;SDS011;5356;43.526;26.534;2023-04-24T06:08:27;10.07;;;4.45;;
10617;SDS011;5356;43.526;26.534;2023-04-24T06:10:53;7.05;;;3.70;;
10617;SDS011;5356;43.526;26.534;2023-04-24T06:13:19;8.57;;;4.32;;
10617;SDS011;5356;43.526;26.534;2023-04-24T06:15:44;9.95;;;4.28;;
10617;SDS011;5356;43.526;26.534;2023-04-24T06:18:10;13.40;;;4.35;;
10617;SDS011;5356;43.526;26.534;2023-04-24T06:20:35;11.02;;;5.30;;
10617;SDS011;5356;43.526;26.534;2023-04-24T06:23:01;9.82;;;4.97;;
10617;SDS011;5356;43.526;26.534;2023-04-24T06:25:27;6.78;;;3.83;;
10617;SDS011;5356;43.526;26.534;2023-04-24T06:27:53;5.63;;;3.75;;
10617;SDS011;5356;43.526;26.534;2023-04-24T06:30:20;4.90;;;3.08;;
10617;SDS011;5356;43.526;26.534;2023-04-24T06:32:46;4.28;;;3.08;;
10617;SDS011;5356;43.526;26.534;2023-04-24T06:35:11;7.55;;;3.22;;
10617;SDS011;5356;43.526;26.534;2023-04-24T06:40:12;4.50;;;3.05;;
10617;SDS011;5356;43.526;26.534;2023-04-24T06:42:38;3.78;;;2.97;;
10617;SDS011;5356;43.526;26.534;2023-04-24T06:45:03;10.10;;;3.53;;
10617;SDS011;5356;43.526;26.534;2023-04-24T06:47:30;5.88;;;3.70;;
10617;SDS011;5356;43.526;26.534;2023-04-24T06:49:56;6.00;;;3.42;;
10617;SDS011;5356;43.526;26.534;2023-04-24T06:52:22;4.28;;;3.40;;
10617;SDS011;5356;43.526;26.534;2023-04-24T06:54:50;4.78;;;2.97;;
10617;SDS011;5356;43.526;26.534;2023-04-24T06:57:15;6.20;;;3.67;;
10617;SDS011;5356;43.526;26.534;2023-04-24T06:59:41;5.97;;;3.10;;
10617;SDS011;5356;43.526;26.534;2023-04-24T07:02:07;8.18;;;3.97;;
10617;SDS011;5356;43.526;26.534;2023-04-24T07:04:32;8.02;;;3.15;;
10617;SDS011;5356;43.526;26.534;2023-04-24T07:06:58;6.20;;;3.45;;
10617;SDS011;5356;43.526;26.534;2023-04-24T07:09:24;6.75;;;4.18;;
10617;SDS011;5356;43.526;26.534;2023-04-24T07:11:51;6.80;;;3.78;;
10617;SDS011;5356;43.526;26.534;2023-04-24T07:14:17;12.43;;;3.67;;
10617;SDS011;5356;43.526;26.534;2023-04-24T07:16:43;6.32;;;3.40;;
10617;SDS011;5356;43.526;26.534;2023-04-24T07:19:09;3.88;;;2.90;;
10617;SDS011;5356;43.526;26.534;2023-04-24T07:21:35;6.70;;;2.70;;
10617;SDS011;5356;43.526;26.534;2023-04-24T07:24:00;5.00;;;3.00;;
10617;SDS011;5356;43.526;26.534;2023-04-24T07:26:28;7.80;;;3.75;;
10617;SDS011;5356;43.526;26.534;2023-04-24T07:28:55;6.82;;;4.10;;
10617;SDS011;5356;43.526;26.534;2023-04-24T07:31:20;6.32;;;3.40;;
10617;SDS011;5356;43.526;26.534;2023-04-24T07:33:46;4.18;;;3.33;;
10617;SDS011;5356;43.526;26.534;2023-04-24T07:36:12;3.08;;;2.72;;
10617;SDS011;5356;43.526;26.534;2023-04-24T07:38:41;7.60;;;3.67;;
10617;SDS011;5356;43.526;26.534;2023-04-24T07:41:07;5.22;;;3.35;;
10617;SDS011;5356;43.526;26.534;2023-04-24T07:43:33;5.05;;;3.13;;
10617;SDS011;5356;43.526;26.534;2023-04-24T07:45:59;6.40;;;4.30;;
10617;SDS011;5356;43.526;26.534;2023-04-24T07:48:24;7.00;;;3.70;;
10617;SDS011;5356;43.526;26.534;2023-04-24T07:50:51;4.93;;;3.25;;
10617;SDS011;5356;43.526;26.534;2023-04-24T07:53:17;4.38;;;2.90;;
10617;SDS011;5356;43.526;26.534;2023-04-24T07:55:42;5.07;;;2.95;;
10617;SDS011;5356;43.526;26.534;2023-04-24T07:58:08;6.53;;;3.67;;
10617;SDS011;5356;43.526;26.534;2023-04-24T08:00:33;7.38;;;3.85;;
10617;SDS011;5356;43.526;26.534;2023-04-24T08:02:59;6.63;;;3.60;;
10617;SDS011;5356;43.526;26.534;2023-04-24T08:05:24;9.52;;;4.78;;
10617;SDS011;5356;43.526;26.534;2023-04-24T08:07:52;6.15;;;3.90;;
10617;SDS011;5356;43.526;26.534;2023-04-24T08:10:18;7.95;;;4.03;;
10617;SDS011;5356;43.526;26.534;2023-04-24T08:12:43;5.95;;;3.10;;
10617;SDS011;5356;43.526;26.534;2023-04-24T08:15:16;8.65;;;3.55;;
10617;SDS011;5356;43.526;26.534;2023-04-24T08:17:41;5.85;;;3.08;;
10617;SDS011;5356;43.526;26.534;2023-04-24T08:20:08;5.40;;;3.50;;
10617;SDS011;5356;43.526;26.534;2023-04-24T08:22:38;4.70;;;2.60;;
10617;SDS011;5356;43.526;26.534;2023-04-24T08:25:08;5.38;;;3.00;;
10617;SDS011;5356;43.526;26.534;2023-04-24T08:27:34;6.28;;;3.42;;
10617;SDS011;5356;43.526;26.534;2023-04-24T08:30:01;5.47;;;3.70;;
10617;SDS011;5356;43.526;26.534;2023-04-24T08:32:30;4.93;;;2.78;;
10617;SDS011;5356;43.526;26.534;2023-04-24T08:34:55;10.02;;;5.03;;
10617;SDS011;5356;43.526;26.534;2023-04-24T08:37:22;6.35;;;3.78;;
10617;SDS011;5356;43.526;26.534;2023-04-24T08:39:48;5.05;;;2.80;;
10617;SDS011;5356;43.526;26.534;2023-04-24T08:42:17;10.10;;;4.93;;
10617;SDS011;5356;43.526;26.534;2023-04-24T08:44:44;13.13;;;5.13;;
10617;SDS011;5356;43.526;26.534;2023-04-24T08:47:11;9.25;;;5.25;;
10617;SDS011;5356;43.526;26.534;2023-04-24T08:49:37;8.07;;;5.95;;
10617;SDS011;5356;43.526;26.534;2023-04-24T08:52:04;6.10;;;2.90;;
10617;SDS011;5356;43.526;26.534;2023-04-24T08:54:30;4.30;;;2.45;;
10617;SDS011;5356;43.526;26.534;2023-04-24T08:57:00;5.28;;;2.92;;
10617;SDS011;5356;43.526;26.534;2023-04-24T08:59:28;4.10;;;2.92;;
10617;SDS011;5356;43.526;26.534;2023-04-24T09:01:55;3.75;;;2.38;;
10617;SDS011;5356;43.526;26.534;2023-04-24T09:04:21;6.38;;;2.83;;
10617;SDS011;5356;43.526;26.534;2023-04-24T09:06:49;5.38;;;2.40;;
10617;SDS011;5356;43.526;26.534;2023-04-24T09:09:16;6.00;;;3.47;;
10617;SDS011;5356;43.526;26.534;2023-04-24T09:11:43;6.20;;;3.40;;
10617;SDS011;5356;43.526;26.534;2023-04-24T09:14:09;8.25;;;3.97;;
10617;SDS011;5356;43.526;26.534;2023-04-24T09:16:36;6.30;;;2.75;;
10617;SDS011;5356;43.526;26.534;2023-04-24T09:19:01;4.50;;;3.28;;
10617;SDS011;5356;43.526;26.534;2023-04-24T09:21:31;8.60;;;3.75;;
10617;SDS011;5356;43.526;26.534;2023-04-24T09:23:58;8.27;;;3.20;;
10617;SDS011;5356;43.526;26.534;2023-04-24T09:26:34;3.95;;;2.83;;
10617;SDS011;5356;43.526;26.534;2023-04-24T09:29:01;5.85;;;2.80;;
10617;SDS011;5356;43.526;26.534;2023-04-24T09:31:28;3.28;;;2.80;;
10617;SDS011;5356;43.526;26.534;2023-04-24T09:33:58;3.28;;;2.50;;
10617;SDS011;5356;43.526;26.534;2023-04-24T09:39:13;4.15;;;2.60;;
10617;SDS011;5356;43.526;26.534;2023-04-24T09:41:54;3.58;;;2.50;;
10617;SDS011;5356;43.526;26.534;2023-04-24T09:44:27;3.38;;;2.72;;
10617;SDS011;5356;43.526;26.534;2023-04-24T09:46:54;11.52;;;3.22;;
10617;SDS011;5356;43.526;26.534;2023-04-24T09:49:27;3.47;;;2.30;;
10617;SDS011;5356;43.526;26.534;2023-04-24T09:52:06;2.63;;;2.40;;
10617;SDS011;5356;43.526;26.534;2023-04-24T09:54:33;7.90;;;3.03;;
10617;SDS011;5356;43.526;26.534;2023-04-24T09:56:58;4.03;;;2.15;;
10617;SDS011;5356;43.526;26.534;2023-04-24T09:59:25;5.95;;;2.50;;
10617;SDS011;5356;43.526;26.534;2023-04-24T10:01:50;5.03;;;2.40;;
10617;SDS011;5356;43.526;26.534;2023-04-24T10:04:21;7.82;;;3.15;;
10617;SDS011;5356;43.526;26.534;2023-04-24T10:06:49;13.85;;;4.75;;
10617;SDS011;5356;43.526;26.534;2023-04-24T10:09:16;3.45;;;2.30;;
10617;SDS011;5356;43.526;26.534;2023-04-24T10:11:43;5.00;;;3.42;;
10617;SDS011;5356;43.526;26.534;2023-04-24T10:14:13;2.83;;;2.50;;
10617;SDS011;5356;43.526;26.534;2023-04-24T10:16:40;6.95;;;3.38;;
10617;SDS011;5356;43.526;26.534;2023-04-24T10:19:06;18.58;;;5.18;;
10617;SDS011;5356;43.526;26.534;2023-04-24T10:21:33;3.55;;;2.75;;
10617;SDS011;5356;43.526;26.534;2023-04-24T10:24:02;4.07;;;2.63;;
10617;SDS011;5356;43.526;26.534;2023-04-24T10:26:29;3.03;;;2.45;;
10617;SDS011;5356;43.526;26.534;2023-04-24T10:28:57;3.88;;;2.47;;
10617;SDS011;5356;43.526;26.534;2023-04-24T10:31:23;6.07;;;2.58;;
10617;SDS011;5356;43.526;26.534;2023-04-24T10:33:49;8.20;;;4.53;;
10617;SDS011;5356;43.526;26.534;2023-04-24T10:36:16;3.95;;;2.65;;
10617;SDS011;5356;43.526;26.534;2023-04-24T10:38:43;3.38;;;2.42;;
10617;SDS011;5356;43.526;26.534;2023-04-24T10:41:12;4.57;;;2.10;;
10617;SDS011;5356;43.526;26.534;2023-04-24T10:43:44;5.50;;;2.63;;
10617;SDS011;5356;43.526;26.534;2023-04-24T10:46:10;7.80;;;3.47;;
10617;SDS011;5356;43.526;26.534;2023-04-24T10:48:36;7.40;;;3.35;;
10617;SDS011;5356;43.526;26.534;2023-04-24T10:51:10;5.65;;;3.60;;
10617;SDS011;5356;43.526;26.534;2023-04-24T10:53:38;3.83;;;2.70;;
10617;SDS011;5356;43.526;26.534;2023-04-24T10:56:07;5.15;;;3.42;;
10617;SDS011;5356;43.526;26.534;2023-04-24T10:58:45;14.32;;;11.77;;
10617;SDS011;5356;43.526;26.534;2023-04-24T11:04:00;22.77;;;9.70;;
10617;SDS011;5356;43.526;26.534;2023-04-24T11:06:28;7.85;;;5.13;;
10617;SDS011;5356;43.526;26.534;2023-04-24T11:09:17;7.03;;;3.28;;
10617;SDS011;5356;43.526;26.534;2023-04-24T11:11:46;7.97;;;3.83;;
10617;SDS011;5356;43.526;26.534;2023-04-24T11:14:16;3.88;;;2.97;;
10617;SDS011;5356;43.526;26.534;2023-04-24T11:16:45;5.25;;;3.70;;
10617;SDS011;5356;43.526;26.534;2023-04-24T11:19:21;4.40;;;3.42;;
10617;SDS011;5356;43.526;26.534;2023-04-24T11:21:54;8.07;;;6.43;;
10617;SDS011;5356;43.526;26.534;2023-04-24T11:30:29;6.82;;;4.47;;
10617;SDS011;5356;43.526;26.534;2023-04-24T11:32:35;4.60;;;4.20;;
10617;SDS011;5356;43.526;26.534;2023-04-24T11:35:05;4.85;;;2.90;;
10617;SDS011;5356;43.526;26.534;2023-04-24T11:37:37;4.63;;;3.95;;
10617;SDS011;5356;43.526;26.534;2023-04-24T11:40:05;4.88;;;3.45;;
10617;SDS011;5356;43.526;26.534;2023-04-24T11:42:35;5.20;;;3.42;;
10617;SDS011;5356;43.526;26.534;2023-04-24T11:45:02;7.57;;;5.75;;
10617;SDS011;5356;43.526;26.534;2023-04-24T11:47:34;5.30;;;3.05;;
10617;SDS011;5356;43.526;26.534;2023-04-24T11:49:59;5.13;;;4.10;;
10617;SDS011;5356;43.526;26.534;2023-04-24T11:52:26;4.82;;;3.97;;
10617;SDS011;5356;43.526;26.534;2023-04-24T11:54:52;3.47;;;3.17;;
10617;SDS011;5356;43.526;26.534;2023-04-24T11:57:21;4.75;;;3.40;;
10617;SDS011;5356;43.526;26.534;2023-04-24T11:59:49;4.18;;;3.28;;
10617;SDS011;5356;43.526;26.534;2023-04-24T12:02:21;5.18;;;3.47;;
10617;SDS011;5356;43.526;26.534;2023-04-24T12:04:51;4.30;;;2.83;;
10617;SDS011;5356;43.526;26.534;2023-04-24T12:07:17;4.70;;;3.30;;
10617;SDS011;5356;43.526;26.534;2023-04-24T12:09:46;7.47;;;3.80;;
10617;SDS011;5356;43.526;26.534;2023-04-24T12:12:14;9.93;;;5.95;;
10617;SDS011;5356;43.526;26.534;2023-04-24T12:14:43;11.65;;;5.32;;
10617;SDS011;5356;43.526;26.534;2023-04-24T12:17:16;5.75;;;4.07;;
10617;SDS011;5356;43.526;26.534;2023-04-24T12:19:45;5.35;;;3.20;;
10617;SDS011;5356;43.526;26.534;2023-04-24T12:22:12;4.38;;;3.00;;
10617;SDS011;5356;43.526;26.534;2023-04-24T12:24:56;4.43;;;3.40;;
10617;SDS011;5356;43.526;26.534;2023-04-24T12:27:28;58.60;;;32.47;;
10617;SDS011;5356;43.526;26.534;2023-04-24T12:29:56;43.42;;;25.02;;
10617;SDS011;5356;43.526;26.534;2023-04-24T12:32:22;8.75;;;6.72;;
10617;SDS011;5356;43.526;26.534;2023-04-24T12:34:50;18.08;;;13.73;;
10617;SDS011;5356;43.526;26.534;2023-04-24T12:37:16;3.65;;;3.35;;
10617;SDS011;5356;43.526;26.534;2023-04-24T12:40:01;8.07;;;7.38;;
10617;SDS011;5356;43.526;26.534;2023-04-24T12:42:27;8.45;;;7.75;;
10617;SDS011;5356;43.526;26.534;2023-04-24T12:44:56;9.15;;;8.18;;
10617;SDS011;5356;43.526;26.534;2023-04-24T12:47:24;7.38;;;6.68;;
10617;SDS011;5356;43.526;26.534;2023-04-24T12:49:50;9.75;;;8.93;;
10617;SDS011;5356;43.526;26.534;2023-04-24T12:52:17;9.57;;;8.30;;
10617;SDS011;5356;43.526;26.534;2023-04-24T12:54:45;4.43;;;3.97;;
10617;SDS011;5356;43.526;26.534;2023-04-24T12:57:11;6.93;;;3.70;;
10617;SDS011;5356;43.526;26.534;2023-04-24T12:59:36;3.33;;;2.78;;
10617;SDS011;5356;43.526;26.534;2023-04-24T13:02:04;4.55;;;3.00;;
10617;SDS011;5356;43.526;26.534;2023-04-24T13:04:31;3.75;;;3.08;;
10617;SDS011;5356;43.526;26.534;2023-04-24T13:06:57;4.90;;;3.33;;
10617;SDS011;5356;43.526;26.534;2023-04-24T13:09:23;19.48;;;13.20;;
10617;SDS011;5356;43.526;26.534;2023-04-24T13:11:49;10.48;;;7.57;;
10617;SDS011;5356;43.526;26.534;2023-04-24T13:14:15;3.88;;;3.47;;
10617;SDS011;5356;43.526;26.534;2023-04-24T13:16:40;4.90;;;3.47;;
10617;SDS011;5356;43.526;26.534;2023-04-24T13:19:06;3.70;;;3.35;;
10617;SDS011;5356;43.526;26.534;2023-04-24T13:21:31;4.00;;;3.63;;
10617;SDS011;5356;43.526;26.534;2023-04-24T13:23:57;4.72;;;3.78;;
10617;SDS011;5356;43.526;26.534;2023-04-24T13:26:22;6.30;;;3.83;;
10617;SDS011;5356;43.526;26.534;2023-04-24T13:28:48;4.22;;;3.40;;
10617;SDS011;5356;43.526;26.534;2023-04-24T13:31:13;5.43;;;3.20;;
10617;SDS011;5356;43.526;26.534;2023-04-24T13:33:39;3.97;;;3.00;;
10617;SDS011;5356;43.526;26.534;2023-04-24T13:36:05;4.43;;;3.83;;
10617;SDS011;5356;43.526;26.534;2023-04-24T13:38:31;7.13;;;4.20;;
10617;SDS011;5356;43.526;26.534;2023-04-24T13:40:56;3.58;;;3.00;;
10617;SDS011;5356;43.526;26.534;2023-04-24T13:43:22;6.82;;;3.47;;
10617;SDS011;5356;43.526;26.534;2023-04-24T13:45:48;6.38;;;4.65;;
10617;SDS011;5356;43.526;26.534;2023-04-24T13:48:13;6.30;;;3.17;;
10617;SDS011;5356;43.526;26.534;2023-04-24T13:50:40;14.75;;;4.15;;
10617;SDS011;5356;43.526;26.534;2023-04-24T13:53:07;5.93;;;4.43;;
10617;SDS011;5356;43.526;26.534;2023-04-24T13:55:32;21.73;;;14.52;;
10617;SDS011;5356;43.526;26.534;2023-04-24T13:57:58;48.15;;;27.80;;
10617;SDS011;5356;43.526;26.534;2023-04-24T14:00:23;52.53;;;32.28;;
10617;SDS011;5356;43.526;26.534;2023-04-24T14:02:49;37.28;;;26.80;;
10617;SDS011;5356;43.526;26.534;2023-04-24T14:05:15;11.05;;;7.45;;
10617;SDS011;5356;43.526;26.534;2023-04-24T14:07:41;6.35;;;3.80;;
10617;SDS011;5356;43.526;26.534;2023-04-24T14:10:06;5.00;;;4.13;;
10617;SDS011;5356;43.526;26.534;2023-04-24T14:12:33;7.05;;;6.13;;
10617;SDS011;5356;43.526;26.534;2023-04-24T14:14:58;7.43;;;4.38;;
10617;SDS011;5356;43.526;26.534;2023-04-24T14:17:24;17.40;;;11.32;;
10617;SDS011;5356;43.526;26.534;2023-04-24T14:19:50;10.30;;;6.13;;
10617;SDS011;5356;43.526;26.534;2023-04-24T14:22:17;61.42;;;30.52;;
10617;SDS011;5356;43.526;26.534;2023-04-24T14:24:42;51.97;;;26.63;;
10617;SDS011;5356;43.526;26.534;2023-04-24T14:27:08;103.40;;;49.85;;
10617;SDS011;5356;43.526;26.534;2023-04-24T14:29:34;17.60;;;11.48;;
10617;SDS011;5356;43.526;26.534;2023-04-24T14:32:00;12.77;;;8.68;;
10617;SDS011;5356;43.526;26.534;2023-04-24T14:34:25;9.60;;;8.68;;
10617;SDS011;5356;43.526;26.534;2023-04-24T14:36:52;7.38;;;5.97;;
10617;SDS011;5356;43.526;26.534;2023-04-24T14:42:10;8.77;;;4.38;;
10617;SDS011;5356;43.526;26.534;2023-04-24T14:44:35;3.22;;;2.92;;
10617;SDS011;5356;43.526;26.534;2023-04-24T14:47:01;7.97;;;4.93;;
10617;SDS011;5356;43.526;26.534;2023-04-24T14:49:26;5.82;;;3.60;;
10617;SDS011;5356;43.526;26.534;2023-04-24T14:51:52;6.15;;;4.25;;
10617;SDS011;5356;43.526;26.534;2023-04-24T14:54:17;5.65;;;4.35;;
10617;SDS011;5356;43.526;26.534;2023-04-24T14:56:43;5.65;;;4.10;;
10617;SDS011;5356;43.526;26.534;2023-04-24T14:59:09;5.93;;;3.75;;